Time;durP1;ratioP1;P1;durP2;ratioP2;P2;SDS_P1;SDS_P2;PMS_P1;PMS_P2;Temp;Humidity;BMP_temperature;BMP_pressure;BME280_temperature;BME280_humidity;BME280_pressure;Samples;Min_cycle;Max_cycle;Signal;HPM_P1;HPM_P2
2022/07/25 00:00:55;;;;;;;5.25;3.22;;;23.90;82.80;;;24.56;73.95;100539.16;5187504;28;20048;-71
2022/07/25 00:03:27;;;;;;;5.03;3.05;;;23.90;83.10;;;24.50;74.08;100545.50;5187500;28;20510;-71
2022/07/25 00:06:00;;;;;;;3.50;2.70;;;23.80;83.70;;;24.44;74.98;100540.34;5186281;28;20144;-71
2022/07/25 00:08:33;;;;;;;4.43;3.00;;;23.70;84.40;;;24.35;75.54;100537.94;5187054;28;20042;-71
2022/07/25 00:11:06;;;;;;;6.63;3.72;;;23.70;85.50;;;24.28;76.52;100533.66;5187218;28;20457;-71
2022/07/25 00:13:38;;;;;;;4.38;2.92;;;23.60;86.40;;;24.21;76.78;100542.72;5187476;28;20042;-71
2022/07/25 00:16:10;;;;;;;6.07;3.45;;;23.50;87.10;;;24.14;76.61;100541.13;5187345;28;20048;-71
2022/07/25 00:18:42;;;;;;;5.78;3.53;;;23.50;87.50;;;24.05;76.62;100532.41;5186665;28;20037;-71
2022/07/25 00:21:15;;;;;;;5.93;3.80;;;23.40;88.00;;;24.00;77.16;100533.47;5187093;28;20422;-71
2022/07/25 00:23:48;;;;;;;5.05;3.30;;;23.30;88.60;;;23.94;77.37;100536.28;5187172;28;20561;-71
2022/07/25 00:26:20;;;;;;;5.05;3.03;;;23.30;89.10;;;23.87;77.56;100527.56;5186764;28;20046;-71
2022/07/25 00:28:52;;;;;;;5.60;3.47;;;23.20;89.70;;;23.84;77.76;100524.97;5186637;28;20038;-71
2022/07/25 00:31:25;;;;;;;5.20;3.10;;;23.10;90.10;;;23.80;77.79;100515.31;5185630;28;20139;-71
2022/07/25 00:33:57;;;;;;;5.50;3.38;;;23.10;90.30;;;23.77;77.24;100510.06;5186913;28;20050;-73
2022/07/25 00:36:29;;;;;;;7.00;3.97;;;23.10;90.40;;;23.70;75.47;100504.00;5186628;28;20133;-72
2022/07/25 00:39:03;;;;;;;5.97;4.10;;;23.00;89.40;;;23.71;74.67;100505.75;5186710;28;20129;-71
2022/07/25 00:41:35;;;;;;;6.15;4.10;;;23.00;89.10;;;23.71;73.83;100500.44;5186611;28;20232;-72
2022/07/25 00:44:08;;;;;;;7.28;3.97;;;23.00;88.50;;;23.70;74.10;100496.03;5186742;28;20075;-72
2022/07/25 00:46:40;;;;;;;5.68;3.92;;;23.00;88.70;;;23.70;73.98;100492.50;5186516;28;20037;-71
2022/07/25 00:49:12;;;;;;;5.63;3.75;;;23.00;88.90;;;23.68;75.09;100499.66;5186617;28;20042;-71
2022/07/25 00:51:45;;;;;;;5.43;3.38;;;23.00;89.80;;;23.61;75.81;100490.03;5185212;28;20088;-72
2022/07/25 00:54:19;;;;;;;6.15;3.80;;;23.00;90.30;;;23.54;76.73;100492.81;5186319;28;20057;-71
2022/07/25 00:56:52;;;;;;;5.15;3.40;;;22.90;90.60;;;23.49;76.92;100494.72;5186379;28;20124;-72
2022/07/25 00:59:24;;;;;;;6.88;3.78;;;22.90;90.80;;;23.41;76.89;100495.78;5184948;28;20050;-71
2022/07/25 01:01:56;;;;;;;6.03;3.80;;;22.80;90.90;;;23.35;77.42;100490.63;5186006;28;20049;-70
2022/07/25 01:04:28;;;;;;;5.13;3.70;;;22.70;91.30;;;23.27;78.22;100488.13;5186175;28;20046;-71
2022/07/25 01:07:01;;;;;;;4.65;3.15;;;22.70;91.70;;;23.22;78.75;100479.38;5184832;28;20566;-71
2022/07/25 01:09:34;;;;;;;4.88;3.20;;;22.60;92.30;;;23.17;79.36;100478.59;5186003;28;20042;-71
2022/07/25 01:12:07;;;;;;;5.88;3.40;;;22.50;92.40;;;23.13;79.93;100469.81;5185911;28;20064;-70
2022/07/25 01:14:43;;;;;;;5.80;3.80;;;22.50;92.80;;;23.10;80.36;100469.03;5186041;28;20065;-73
2022/07/25 01:17:16;;;;;;;6.32;3.65;;;22.50;93.40;;;23.07;80.59;100474.38;5185521;28;20050;-72
2022/07/25 01:19:50;;;;;;;5.30;3.53;;;22.40;93.40;;;23.04;80.81;100474.47;5184876;28;20148;-71
2022/07/25 01:22:23;;;;;;;5.10;3.38;;;22.40;93.80;;;22.98;81.37;100476.34;5184760;28;20046;-71
2022/07/25 01:24:55;;;;;;;5.45;3.63;;;22.40;94.10;;;22.95;81.52;100473.75;5185987;28;20049;-73
2022/07/25 01:27:27;;;;;;;5.13;3.25;;;22.30;94.30;;;22.90;81.40;100472.09;5185441;28;20042;-70
2022/07/25 01:30:00;;;;;;;5.97;3.63;;;22.30;94.50;;;22.85;81.48;100473.94;5185754;28;20131;-72
2022/07/25 01:32:32;;;;;;;4.55;3.13;;;22.20;94.60;;;22.81;81.21;100470.44;5184379;28;20052;-71
2022/07/25 01:35:05;;;;;;;5.38;3.40;;;22.20;94.70;;;22.75;81.06;100465.25;5186199;28;20045;-70
2022/07/25 01:37:39;;;;;;;5.20;3.40;;;22.20;94.80;;;22.71;81.32;100467.13;5184775;28;20046;-71
2022/07/25 01:40:12;;;;;;;5.28;3.55;;;22.10;94.90;;;22.67;81.47;100464.56;5184212;28;20132;-71
2022/07/25 01:42:45;;;;;;;5.72;3.70;;;22.00;95.20;;;22.63;81.64;100469.06;5184207;28;20096;-70
2022/07/25 01:45:17;;;;;;;6.63;4.45;;;22.00;95.30;;;22.61;82.07;100469.97;5185455;28;20447;-71
2022/07/25 01:47:49;;;;;;;6.03;3.90;;;22.00;95.60;;;22.57;82.56;100465.66;5185226;28;20069;-71
2022/07/25 01:50:21;;;;;;;4.50;3.15;;;22.00;95.90;;;22.55;82.77;100470.09;5185175;28;20534;-72
2022/07/25 01:52:55;;;;;;;5.28;3.25;;;21.90;96.10;;;22.52;83.28;100462.22;5185477;28;20517;-71
2022/07/25 01:55:27;;;;;;;7.00;3.78;;;21.90;96.40;;;22.48;83.69;100461.38;5185395;28;20077;-71
2022/07/25 01:58:00;;;;;;;5.82;3.65;;;21.80;96.60;;;22.45;83.85;100462.31;5184154;28;20406;-71
2022/07/25 02:03:40;;;;;;;5.82;3.63;;;21.80;97.20;;;22.36;84.45;100456.28;5197406;23;20050;-72
2022/07/25 02:06:12;;;;;;;5.35;3.60;;;21.80;97.40;;;22.33;84.69;100457.25;5184892;28;20050;-71
2022/07/25 02:08:45;;;;;;;5.20;3.67;;;21.70;97.60;;;22.29;85.31;100452.88;5185019;28;20046;-71
2022/07/25 02:11:17;;;;;;;4.60;3.22;;;21.70;97.90;;;22.26;85.71;100447.66;5185415;28;20038;-72
2022/07/25 02:13:50;;;;;;;4.90;3.28;;;21.70;98.20;;;22.23;86.00;100442.38;5185168;28;20049;-72
2022/07/25 02:16:22;;;;;;;7.78;3.90;;;21.60;98.40;;;22.19;86.40;100444.22;5185254;28;20072;-71
2022/07/25 02:18:54;;;;;;;6.03;3.80;;;21.60;98.70;;;22.18;86.68;100436.31;5185038;28;20044;-72
2022/07/25 02:21:26;;;;;;;5.90;3.67;;;21.60;98.90;;;22.17;85.66;100437.22;5185029;28;20120;-71
2022/07/25 02:24:00;;;;;;;5.03;3.55;;;21.60;98.70;;;22.16;85.53;100441.63;5185208;28;20041;-71
2022/07/25 02:26:32;;;;;;;6.13;3.97;;;21.60;98.70;;;22.15;85.84;100442.53;5185297;28;20071;-73
2022/07/25 02:29:04;;;;;;;6.65;3.80;;;21.50;98.90;;;22.12;86.39;100428.44;5184804;28;20113;-71
2022/07/25 02:31:36;;;;;;;5.90;3.72;;;21.50;99.10;;;22.08;86.64;100432.88;5185134;28;20041;-72
2022/07/25 02:34:08;;;;;;;5.18;3.30;;;21.50;99.30;;;22.05;86.80;100429.44;5185258;28;20081;-71
2022/07/25 02:36:41;;;;;;;6.65;3.80;;;21.50;99.40;;;22.02;87.25;100432.13;5183894;28;20140;-72
2022/07/25 02:39:14;;;;;;;6.05;4.32;;;21.40;99.50;;;21.98;87.59;100430.44;5184890;28;20402;-72
2022/07/25 02:41:46;;;;;;;4.85;3.50;;;21.40;99.80;;;21.93;87.98;100417.25;5185017;28;20066;-72
2022/07/25 02:44:18;;;;;;;5.43;3.50;;;21.40;99.90;;;21.90;88.45;100425.25;5184976;28;20050;-72
2022/07/25 02:46:51;;;;;;;5.22;3.83;;;21.30;99.90;;;21.87;88.81;100412.94;5185299;28;20405;-72
2022/07/25 02:49:23;;;;;;;4.78;3.28;;;21.30;99.90;;;21.86;88.31;100410.31;5188145;28;20046;-72
2022/07/25 02:51:56;;;;;;;5.50;3.58;;;21.30;99.90;;;21.87;86.48;100417.34;5188915;28;20045;-71
2022/07/25 02:54:29;;;;;;;5.60;3.58;;;21.30;99.80;;;21.90;85.60;100412.84;5188795;28;20129;-71
2022/07/25 02:57:01;;;;;;;6.68;4.63;;;21.30;99.50;;;21.91;85.69;100409.31;5188764;28;20387;-72
2022/07/25 02:59:34;;;;;;;6.03;3.40;;;21.30;99.50;;;21.90;85.89;100412.84;5188572;28;20052;-72
2022/07/25 03:02:06;;;;;;;5.97;3.80;;;21.30;99.60;;;21.87;86.04;100407.63;5187134;28;20137;-72
2022/07/25 03:04:38;;;;;;;5.03;3.20;;;21.30;99.60;;;21.84;86.49;100405.03;5188736;28;20050;-72
2022/07/25 03:07:10;;;;;;;5.32;3.50;;;21.30;99.80;;;21.80;86.65;100403.31;5187156;28;20052;-72
2022/07/25 03:09:44;;;;;;;5.53;3.70;;;21.20;99.90;;;21.77;87.48;100403.34;5188452;28;20045;-72
2022/07/25 03:12:16;;;;;;;5.60;3.30;;;21.20;99.90;;;21.73;87.67;100399.03;5187161;28;20050;-71
2022/07/25 03:14:48;;;;;;;5.72;3.30;;;21.20;99.90;;;21.70;87.98;100393.75;5188511;28;20121;-70
2022/07/25 03:17:20;;;;;;;5.30;3.45;;;21.10;99.90;;;21.67;88.56;100393.81;5188097;28;20121;-71
2022/07/25 03:19:52;;;;;;;6.50;3.78;;;21.10;99.90;;;21.65;88.63;100396.50;5188486;28;20683;-71
2022/07/25 03:22:26;;;;;;;5.07;3.30;;;21.10;99.90;;;21.61;88.56;100389.50;5188284;28;20046;-71
2022/07/25 03:24:59;;;;;;;5.72;3.78;;;21.10;99.90;;;21.59;88.97;100388.66;5188311;28;20096;-71
2022/07/25 03:27:32;;;;;;;6.32;3.53;;;21.10;99.90;;;21.58;88.77;100388.66;5187953;28;20693;-72
2022/07/25 03:30:05;;;;;;;5.78;3.58;;;21.00;99.90;;;21.58;88.64;100393.97;5188086;28;20046;-71
2022/07/25 03:32:38;;;;;;;6.68;3.85;;;21.00;99.90;;;21.57;88.44;100386.91;5188043;28;20144;-71
2022/07/25 03:35:10;;;;;;;5.38;3.45;;;21.00;99.90;;;21.53;88.79;100380.81;5188080;28;20038;-72
2022/07/25 03:37:42;;;;;;;5.75;4.07;;;21.00;99.90;;;21.51;89.17;100384.34;5187787;28;20052;-70
2022/07/25 03:40:16;;;;;;;5.57;3.63;;;20.90;99.90;;;21.48;89.24;100368.50;5188019;28;20041;-70
2022/07/25 03:42:48;;;;;;;6.47;4.20;;;20.90;99.90;;;21.47;89.35;100369.41;5187732;28;20405;-71
2022/07/25 03:45:20;;;;;;;5.40;3.72;;;20.90;99.90;;;21.44;89.51;100369.47;5187898;28;20048;-71
2022/07/25 03:47:52;;;;;;;6.68;3.40;;;20.90;99.90;;;21.40;89.87;100358.91;5187711;28;20048;-72
2022/07/25 03:50:24;;;;;;;5.13;3.17;;;20.80;99.90;;;21.39;90.37;100364.25;5187757;28;20129;-71
2022/07/25 03:52:57;;;;;;;6.38;3.83;;;20.80;99.90;;;21.36;90.50;100362.50;5187812;28;20424;-72
2022/07/25 03:55:30;;;;;;;6.32;3.97;;;20.80;99.90;;;21.34;90.62;100361.66;5187816;28;20128;-71
2022/07/25 03:58:03;;;;;;;6.78;4.22;;;20.80;99.90;;;21.30;90.89;100359.94;5187567;28;20482;-72
2022/07/25 04:00:35;;;;;;;8.55;3.65;;;20.70;99.90;;;21.29;91.11;100359.97;5185724;28;20078;-70
2022/07/25 04:03:07;;;;;;;6.18;4.05;;;20.70;99.90;;;21.27;91.51;100354.69;5187348;28;20049;-71
2022/07/25 04:05:39;;;;;;;7.30;4.30;;;20.70;99.90;;;21.27;91.24;100346.72;5187520;28;20118;-71
2022/07/25 04:08:11;;;;;;;6.70;4.32;;;20.70;99.90;;;21.30;90.75;100349.34;5185901;28;20144;-72
2022/07/25 04:10:45;;;;;;;6.03;3.60;;;20.70;99.90;;;21.31;90.62;100340.50;5187395;28;20053;-72
2022/07/25 04:13:17;;;;;;;6.38;3.90;;;20.70;99.90;;;21.32;90.73;100347.56;5187319;28;20078;-72
2022/07/25 04:15:49;;;;;;;5.78;3.88;;;20.70;99.90;;;21.32;91.14;100346.66;5187448;28;20045;-72
2022/07/25 04:18:22;;;;;;;6.65;4.45;;;20.80;99.90;;;21.31;91.24;100343.13;5185760;28;20402;-71
2022/07/25 04:20:54;;;;;;;5.82;3.90;;;20.80;99.90;;;21.31;91.85;100345.78;5187116;28;20128;-71
2022/07/25 04:23:27;;;;;;;6.25;3.90;;;20.80;99.90;;;21.29;91.60;100339.66;5187279;28;20124;-71
2022/07/25 04:26:01;;;;;;;6.55;4.00;;;20.70;99.90;;;21.30;91.80;100340.53;5187227;28;20076;-71
2022/07/25 04:28:33;;;;;;;6.03;3.47;;;20.70;99.90;;;21.28;91.97;100332.59;5187066;28;20030;-72
2022/07/25 04:31:05;;;;;;;6.70;3.78;;;20.70;99.90;;;21.30;92.10;100335.22;5187024;28;20555;-70
2022/07/25 04:33:38;;;;;;;6.63;4.40;;;20.70;99.90;;;21.33;92.71;100336.06;5186998;28;20486;-72
2022/07/25 04:36:11;;;;;;;5.63;4.07;;;20.80;99.90;;;21.34;92.87;100324.56;5186967;28;20044;-72
2022/07/25 04:38:43;;;;;;;6.22;3.90;;;20.80;99.90;;;21.36;93.02;100329.81;5186615;28;20049;-71
2022/07/25 04:41:16;;;;;;;6.82;4.10;;;20.80;99.90;;;21.38;93.81;100323.56;5186516;28;20053;-70
2022/07/25 04:43:48;;;;;;;6.18;3.55;;;20.80;99.90;;;21.42;93.83;100329.72;5186814;28;20057;-72
2022/07/25 04:46:21;;;;;;;6.53;3.53;;;20.90;99.90;;;21.44;93.79;100322.59;5186678;28;20052;-72
2022/07/25 04:48:56;;;;;;;7.32;4.10;;;20.90;99.90;;;21.48;94.10;100323.44;5186386;28;20582;-71
2022/07/25 04:51:29;;;;;;;7.03;3.95;;;20.90;99.90;;;21.52;94.45;100325.16;5185320;28;20049;-71
2022/07/25 04:54:01;;;;;;;7.18;4.00;;;21.00;99.90;;;21.56;94.57;100325.03;5186543;28;20046;-72
2022/07/25 04:56:34;;;;;;;6.65;3.90;;;21.00;99.90;;;21.62;94.09;100329.38;5186338;28;20046;-73
2022/07/25 04:59:07;;;;;;;5.95;3.92;;;21.00;99.90;;;21.74;94.47;100315.03;5186328;28;20557;-71
2022/07/25 05:01:39;;;;;;;7.43;4.90;;;21.10;99.90;;;21.99;94.39;100320.75;5186251;28;20052;-71
2022/07/25 05:04:11;;;;;;;8.43;5.32;;;21.30;99.90;;;22.38;93.79;100314.66;5185069;28;20078;-72
2022/07/25 05:06:43;;;;;;;8.80;6.05;;;21.60;99.90;;;22.86;92.37;100319.81;5185194;28;20392;-71
2022/07/25 05:09:15;;;;;;;8.57;5.28;;;22.10;99.90;;;23.34;89.22;100314.19;5186322;28;20052;-71
2022/07/25 05:11:49;;;;;;;9.23;5.15;;;22.50;99.90;;;23.82;85.21;100316.56;5183968;28;20053;-71
2022/07/25 05:14:21;;;;;;;9.00;5.60;;;22.90;99.90;;;24.32;79.65;100312.47;5186248;28;20056;-71
2022/07/25 05:16:53;;;;;;;8.75;4.88;;;23.40;98.90;;;24.85;75.23;100309.13;5186186;28;20049;-71
2022/07/25 05:19:25;;;;;;;8.20;5.30;;;23.90;97.10;;;25.33;71.93;100319.13;5185909;28;20038;-71
2022/07/25 05:21:58;;;;;;;7.38;4.97;;;24.30;95.50;;;25.75;68.19;100311.47;5185913;28;20052;-71
2022/07/25 05:24:33;;;;;;;8.93;4.80;;;24.70;93.60;;;26.09;66.79;100308.47;5186162;28;20049;-71
2022/07/25 05:27:07;;;;;;;6.60;4.70;;;25.10;92.40;;;26.42;65.08;100316.19;5184533;28;20050;-72
2022/07/25 05:29:39;;;;;;;8.23;4.43;;;25.40;91.20;;;26.60;63.51;100312.78;5185675;28;20042;-72
2022/07/25 05:32:21;;;;;;;7.07;4.65;;;25.70;89.90;;;26.91;62.49;100311.59;5184681;28;20060;-72
2022/07/25 05:34:59;;;;;;;6.00;4.35;;;25.90;88.00;;;27.10;61.71;100301.03;5184783;28;20046;-73
2022/07/25 05:37:35;;;;;;;6.28;4.57;;;26.10;86.20;;;27.34;60.91;100302.72;5200709;28;20052;-73
2022/07/25 05:40:08;;;;;;;7.72;4.50;;;26.40;84.70;;;27.71;60.04;100302.03;5184398;28;20056;-73
2022/07/25 05:42:41;;;;;;;5.95;4.47;;;26.70;83.00;;;28.03;60.82;100302.38;5184369;28;20053;-71
2022/07/25 05:45:13;;;;;;;6.75;4.53;;;27.00;83.80;;;28.28;58.67;100300.34;5185684;28;20048;-73
2022/07/25 05:47:46;;;;;;;6.45;4.10;;;27.30;81.00;;;28.50;57.46;100299.38;5184275;28;20050;-72
2022/07/25 05:50:18;;;;;;;8.20;4.47;;;27.50;78.90;;;28.56;56.53;100293.69;5184293;28;20062;-73
2022/07/25 05:52:50;;;;;;;6.85;4.22;;;27.60;77.00;;;28.49;56.92;100292.25;5185507;28;20084;-72
2022/07/25 05:55:22;;;;;;;8.43;4.75;;;27.60;77.20;;;28.38;57.07;100292.78;5185522;28;20380;-72
2022/07/25 05:57:56;;;;;;;7.78;4.63;;;27.60;76.30;;;28.16;57.14;100295.53;5184168;28;20570;-71
2022/07/25 06:00:28;;;;;;;;;;;27.40;76.00;;;28.10;57.56;100290.44;5185987;28;20509;-70
2022/07/25 06:03:00;;;;;;;8.07;4.55;;;27.40;75.90;;;28.10;56.71;100282.41;5185083;28;19928;-70
2022/07/25 06:05:32;;;;;;;5.60;3.90;;;27.30;75.10;;;28.02;56.96;100281.91;5182709;28;20119;-70
2022/07/25 06:08:05;;;;;;;8.10;4.38;;;27.30;75.60;;;28.09;56.84;100278.00;5179634;28;20125;-70
2022/07/25 06:10:38;;;;;;;6.72;4.28;;;27.30;75.00;;;28.11;56.07;100279.69;5183856;28;20056;-71
2022/07/25 06:13:11;;;;;;;7.50;4.68;;;27.30;74.10;;;28.07;56.15;100279.91;5184980;28;20061;-71
2022/07/25 06:15:43;;;;;;;5.45;4.05;;;27.30;74.00;;;27.94;56.58;100278.72;5185242;28;20068;-71
2022/07/25 06:18:15;;;;;;;6.75;4.03;;;27.20;73.90;;;27.84;56.59;100279.13;5184801;28;20060;-71
2022/07/25 06:20:48;;;;;;;7.18;4.28;;;27.10;74.00;;;27.88;57.11;100273.63;5185025;28;20042;-71
2022/07/25 06:23:21;;;;;;;6.25;3.97;;;27.10;74.30;;;27.88;57.09;100277.16;5187127;28;20073;-71
2022/07/25 06:25:53;;;;;;;7.28;4.03;;;27.10;74.10;;;27.87;57.06;100271.88;5189423;28;20519;-70
2022/07/25 06:28:26;;;;;;;5.55;3.65;;;27.10;74.10;;;27.91;57.33;100273.47;5204354;28;20056;-70
2022/07/25 06:30:58;;;;;;;6.00;4.15;;;27.10;74.40;;;27.99;57.39;100276.69;5189005;28;20117;-71
2022/07/25 06:33:31;;;;;;;5.85;4.32;;;27.20;75.10;;;28.16;57.64;100276.78;5189211;28;20499;-67
2022/07/25 06:36:05;;;;;;;6.05;4.07;;;27.30;74.50;;;28.27;57.68;100276.28;5204384;28;20053;-71
2022/07/25 06:38:37;;;;;;;5.20;3.50;;;27.40;74.80;;;28.34;57.41;100272.41;5204066;28;20050;-71
2022/07/25 06:41:15;;;;;;;7.82;3.92;;;27.50;74.60;;;28.40;57.28;100277.50;5197770;28;20501;-72
2022/07/25 06:43:48;;;;;;;5.30;3.80;;;27.50;74.10;;;28.47;56.71;100272.72;5189196;28;20068;-72
2022/07/25 06:46:20;;;;;;;7.03;4.10;;;27.60;73.80;;;28.50;56.67;100265.41;5187722;28;20144;-73
2022/07/25 06:48:52;;;;;;;5.72;4.07;;;27.60;73.50;;;28.63;56.26;100268.38;5187307;28;20057;-72
2022/07/25 06:51:25;;;;;;;6.82;4.75;;;27.70;73.20;;;28.78;55.65;100266.75;5188843;28;20384;-66
2022/07/25 06:53:57;;;;;;;6.32;4.28;;;27.80;72.60;;;28.93;55.91;100266.88;5183109;28;20490;-66
2022/07/25 06:56:31;;;;;;;5.63;3.72;;;28.00;72.70;;;29.02;55.56;100270.09;5188782;28;20037;-73
2022/07/25 06:59:05;;;;;;;4.90;3.53;;;28.10;72.10;;;29.18;55.43;100260.28;5188561;28;20128;-72
2022/07/25 07:01:37;;;;;;;6.18;4.00;;;28.20;71.90;;;29.37;55.00;100270.97;5188581;28;20057;-72
2022/07/25 07:04:09;;;;;;;4.97;3.55;;;28.30;71.90;;;29.58;54.87;100263.66;5188741;28;20083;-71
2022/07/25 07:06:42;;;;;;;6.72;4.03;;;28.50;71.80;;;29.91;55.26;100258.31;5187516;28;20054;-71
2022/07/25 07:09:14;;;;;;;6.63;3.85;;;28.80;72.00;;;30.19;53.65;100253.22;5188163;28;20046;-71
2022/07/25 07:11:46;;;;;;;5.90;3.90;;;29.00;70.50;;;30.28;52.45;100251.81;5188305;28;20057;-71
2022/07/25 07:14:20;;;;;;;6.80;3.90;;;29.10;68.90;;;30.18;52.22;100242.53;5188368;28;20414;-71
2022/07/25 07:16:52;;;;;;;5.18;3.63;;;29.10;68.30;;;30.00;52.37;100253.31;5188408;28;20046;-71
2022/07/25 07:19:24;;;;;;;5.70;3.42;;;29.00;68.00;;;29.84;52.44;100255.06;5188103;28;20037;-70
2022/07/25 07:21:56;;;;;;;7.15;3.92;;;28.90;67.80;;;29.80;52.50;100250.84;5186855;28;20045;-70
2022/07/25 07:24:28;;;;;;;5.55;3.45;;;28.90;68.20;;;29.88;53.11;100245.91;5183506;28;20046;-70
2022/07/25 07:27:01;;;;;;;6.30;3.63;;;28.90;68.60;;;30.02;52.28;100245.16;5184058;28;20046;-69
2022/07/25 07:29:34;;;;;;;7.60;3.80;;;28.90;67.90;;;30.08;52.45;100235.91;5182502;28;20037;-71
2022/07/25 07:32:07;;;;;;;5.45;3.70;;;29.00;68.00;;;30.10;52.57;100239.41;5189739;28;20056;-70
2022/07/25 07:34:39;;;;;;;5.13;3.50;;;29.00;68.00;;;30.10;53.13;100234.03;5189313;28;20045;-70
2022/07/25 07:37:11;;;;;;;6.07;3.95;;;29.10;68.90;;;30.16;53.28;100239.06;5187806;28;20048;-71
2022/07/25 07:39:43;;;;;;;4.95;3.42;;;29.10;68.50;;;30.34;52.87;100240.72;5187896;28;20042;-70
2022/07/25 07:42:15;;;;;;;5.90;4.05;;;29.20;68.20;;;30.43;52.35;100242.91;5203049;28;20053;-70
2022/07/25 07:44:49;;;;;;;7.10;4.10;;;29.40;67.70;;;30.44;52.41;100233.88;5187841;28;20125;-70
2022/07/25 07:47:21;;;;;;;6.85;3.90;;;29.40;67.40;;;30.50;52.27;100228.16;5187489;28;20042;-70
2022/07/25 07:49:53;;;;;;;6.75;4.20;;;29.40;67.50;;;30.69;52.28;100232.50;5186514;28;20441;-71
2022/07/25 07:52:25;;;;;;;5.85;3.90;;;29.60;67.60;;;30.86;52.24;100229.72;5187154;28;20124;-71
2022/07/25 07:57:47;;;;;;;6.15;4.28;;;29.90;67.30;;;31.26;52.15;100224.72;5201638;28;20541;-71
2022/07/25 08:00:21;;;;;;;6.13;3.83;;;30.10;67.50;;;31.54;51.61;100229.28;5185909;28;20038;-70
2022/07/25 08:02:55;;;;;;;5.13;3.72;;;30.30;67.70;;;31.90;50.33;100218.09;5335921;22;20097;-69
2022/07/25 08:05:30;;;;;;;5.07;3.65;;;30.50;66.10;;;32.13;49.87;100225.56;5182004;28;20038;-69
2022/07/25 08:08:03;;;;;;;4.32;3.20;;;30.70;65.50;;;32.29;49.03;100224.59;5183008;28;20128;-69
2022/07/25 08:10:38;;;;;;;6.53;3.80;;;30.90;64.80;;;32.42;48.77;100230.13;5186960;28;20318;-68
2022/07/25 08:13:16;;;;;;;5.35;3.50;;;31.00;64.20;;;32.49;48.31;100226.91;5162965;28;20526;-71
2022/07/25 08:15:52;;;;;;;5.88;3.92;;;31.00;63.70;;;32.44;47.96;100223.63;5166753;28;20046;-69
2022/07/25 08:18:25;;;;;;;4.60;3.70;;;31.00;63.20;;;32.29;48.34;100224.59;5165008;28;20042;-69
2022/07/25 08:20:57;;;;;;;5.30;3.85;;;31.00;63.20;;;32.12;48.83;100225.69;5163554;28;20050;-70
2022/07/25 08:23:31;;;;;;;5.90;3.58;;;30.90;63.50;;;31.95;48.87;100223.16;5166717;28;20073;-68
2022/07/25 08:26:05;;;;;;;6.40;3.88;;;30.70;63.40;;;31.80;49.16;100227.69;5166653;28;20053;-67
2022/07/25 08:28:37;;;;;;;5.07;3.70;;;30.60;63.50;;;31.67;49.47;100221.31;5166449;28;20050;-68
2022/07/25 08:31:10;;;;;;;4.93;3.30;;;30.50;63.70;;;31.59;49.33;100230.72;5166511;28;20046;-69
2022/07/25 08:33:42;;;;;;;5.30;3.55;;;30.40;63.50;;;31.48;49.75;100226.97;5166693;28;20438;-68
2022/07/25 08:36:15;;;;;;;4.32;3.30;;;30.30;63.80;;;31.36;50.18;100223.19;5166544;28;20097;-67
2022/07/25 08:38:47;;;;;;;3.75;3.10;;;30.30;64.20;;;31.27;50.56;100223.75;5166391;28;20050;-67
2022/07/25 08:41:19;;;;;;;4.10;3.17;;;30.10;64.30;;;31.13;50.70;100219.16;5164604;28;20136;-68
2022/07/25 08:43:52;;;;;;;5.07;3.40;;;30.00;64.40;;;31.01;50.77;100220.75;5165201;28;20156;-67
2022/07/25 08:46:27;;;;;;;6.43;3.97;;;30.00;64.40;;;30.96;50.18;100219.28;5166150;28;20053;-69
2022/07/25 08:48:59;;;;;;;5.35;3.70;;;29.90;64.20;;;30.91;50.19;100222.25;5166013;28;20121;-68
2022/07/25 08:51:33;;;;;;;5.85;3.60;;;29.80;64.00;;;30.85;50.42;100221.75;5166097;28;20336;-68
2022/07/25 08:54:06;;;;;;;6.65;3.60;;;29.80;64.10;;;30.80;50.54;100227.38;5165007;28;20084;-69
2022/07/25 08:56:38;;;;;;;5.57;3.78;;;29.80;64.20;;;30.76;50.45;100228.50;5166251;28;20048;-69
2022/07/25 08:59:10;;;;;;;4.93;3.55;;;29.70;64.10;;;30.72;50.92;100222.47;5165952;28;20048;-69
2022/07/25 09:01:44;;;;;;;4.35;3.40;;;29.70;64.40;;;30.75;51.24;100230.34;5166249;28;20034;-69
2022/07/25 09:04:16;;;;;;;5.25;3.38;;;29.70;64.70;;;30.79;50.88;100239.97;5160938;28;20043;-69
2022/07/25 09:06:50;;;;;;;4.95;3.28;;;29.70;64.40;;;31.04;50.75;100236.72;5157616;28;20053;-70
2022/07/25 09:09:30;;;;;;;;;;;29.80;64.50;;;31.80;50.01;100244.72;5166128;28;20070;-70
2022/07/25 09:12:02;;;;;;;4.82;3.10;;;30.10;64.60;;;33.15;47.01;100231.50;5145313;28;20009;-69
2022/07/25 09:14:42;;;;;;;4.20;3.47;;;30.90;63.30;;;34.47;44.91;100238.47;5145517;28;20401;-69
2022/07/25 09:17:16;;;;;;;5.22;3.90;;;31.90;61.40;;;35.03;44.08;100225.28;5145410;28;20455;-68
2022/07/25 09:19:52;;;;;;;;;;;32.50;60.20;;;35.67;43.65;100225.75;5145761;28;20050;-69
2022/07/25 09:22:24;;;;;;;6.03;3.58;;;33.00;59.80;;;36.23;42.40;100231.19;5151240;28;19928;-69
2022/07/25 09:24:56;;;;;;;5.00;3.50;;;33.50;58.60;;;36.02;42.10;100243.78;5165558;28;20046;-69
2022/07/25 09:27:34;;;;;;;5.50;3.70;;;33.60;57.60;;;36.23;41.87;100228.47;5165101;28;20057;-69
2022/07/25 09:30:14;;;;;;;5.45;3.85;;;33.80;57.40;;;36.36;41.54;100229.22;5165467;28;20046;-69
2022/07/25 09:32:48;;;;;;;4.93;3.88;;;34.00;57.10;;;36.56;41.12;100229.44;5165699;28;20395;-68
2022/07/25 09:35:30;;;;;;;;;;;34.30;56.40;;;36.71;40.85;100236.31;5164195;28;20060;-69
2022/07/25 09:38:13;;;;;;;4.72;4.05;;;34.50;56.00;;;36.50;41.50;100246.25;5164317;28;20295;-70
2022/07/25 09:40:56;;;;;;;5.63;3.20;;;34.60;55.70;;;35.78;41.62;100244.72;5164887;28;20061;-69
2022/07/25 09:43:39;;;;;;;3.78;2.97;;;34.20;55.50;;;34.98;42.95;100250.00;5159068;28;20121;-69
2022/07/25 09:46:12;;;;;;;4.47;3.50;;;33.70;56.00;;;34.40;43.42;100265.09;5165159;28;20050;-68
2022/07/25 09:48:45;;;;;;;4.95;3.35;;;33.20;56.30;;;34.18;44.54;100257.66;5163546;28;20089;-69
2022/07/25 09:51:18;;;;;;;4.57;3.53;;;32.90;57.20;;;34.32;45.10;100258.50;5163659;28;20046;-68
2022/07/25 09:53:50;;;;;;;4.57;3.40;;;32.90;58.10;;;34.57;45.08;100265.75;5165158;28;20080;-69
2022/07/25 09:56:22;;;;;;;5.47;3.88;;;33.00;58.10;;;34.74;44.50;100263.50;5164747;28;20038;-68
2022/07/25 09:58:54;;;;;;;5.47;3.83;;;33.20;57.90;;;34.72;43.98;100264.59;5161235;28;20047;-69
2022/07/25 10:01:37;;;;;;;5.13;3.83;;;33.20;57.50;;;34.54;44.48;100262.25;5164885;28;20049;-69
2022/07/25 10:04:20;;;;;;;4.93;4.07;;;33.10;57.40;;;34.16;44.60;100267.72;5163458;28;20418;-69
2022/07/25 10:07:04;;;;;;;5.75;3.58;;;32.90;57.30;;;33.66;45.26;100265.88;5164811;28;20046;-70
2022/07/25 10:09:43;;;;;;;6.50;4.55;;;32.60;57.60;;;33.24;46.34;100267.81;5165102;28;20042;-71
2022/07/25 10:12:21;;;;;;;5.40;3.70;;;32.20;58.40;;;32.93;46.89;100269.03;5163436;28;20101;-64
2022/07/25 10:15:11;;;;;;;5.95;3.70;;;32.00;58.90;;;32.56;47.63;100274.09;5164970;28;20046;-70
2022/07/25 10:17:43;;;;;;;6.95;4.20;;;31.60;59.60;;;32.21;48.32;100279.00;5163275;28;20093;-70
2022/07/25 10:20:28;;;;;;;6.25;3.67;;;31.30;60.00;;;31.78;49.19;100283.50;5163448;28;20529;-68
2022/07/25 10:23:00;;;;;;;7.53;4.03;;;30.90;60.80;;;31.41;50.51;100285.72;5164938;28;20117;-68
2022/07/25 10:25:32;;;;;;;5.30;3.70;;;30.60;61.70;;;31.10;51.46;100291.13;5164617;28;20038;-67
2022/07/25 10:28:08;;;;;;;6.07;4.00;;;30.40;62.80;;;30.82;52.33;100276.59;5164524;28;20050;-66
2022/07/25 10:30:42;;;;;;;5.57;3.95;;;30.10;63.60;;;30.54;53.30;100267.38;5164382;28;20054;-64
2022/07/25 10:33:18;;;;;;;5.20;3.75;;;29.80;64.30;;;30.31;54.13;100269.59;5160038;28;20062;-64
2022/07/25 10:35:52;;;;;;;8.60;4.45;;;29.60;64.80;;;30.03;55.54;100259.47;5163720;28;20046;-63
2022/07/25 10:38:25;;;;;;;7.90;4.30;;;29.40;66.30;;;29.76;56.75;100257.31;5164479;28;20049;-64
2022/07/25 10:41:02;;;;;;;7.72;4.15;;;29.10;67.00;;;29.53;58.31;100254.94;5160599;28;20152;-64
2022/07/25 10:43:37;;;;;;;7.22;3.95;;;28.90;68.60;;;29.35;59.57;100240.66;5165076;28;20042;-64